Time;durP1;ratioP1;P1;durP2;ratioP2;P2;SDS_P1;SDS_P2;PMS_P1;PMS_P2;Temp;Humidity;BMP_temperature;BMP_pressure;BME280_temperature;BME280_humidity;BME280_pressure;Samples;Min_cycle;Max_cycle;Signal;HPM_P1;HPM_P2
2023/01/06 00:01:16;;;;;;;38.20;10.50;;;18.30;95.00;;;;;;5050064;28;20271;-74
2023/01/06 00:03:47;;;;;;;48.60;12.03;;;18.40;94.90;;;;;;5049340;28;20176;-78
2023/01/06 00:06:14;;;;;;;44.93;11.17;;;18.40;94.80;;;;;;5051873;28;20540;-75
2023/01/06 00:08:42;;;;;;;46.03;11.03;;;18.60;94.80;;;;;;5046217;28;20184;-74
2023/01/06 00:11:14;;;;;;;47.77;10.90;;;18.80;94.80;;;;;;5048166;28;20184;-75
2023/01/06 00:13:41;;;;;;;49.73;11.00;;;18.80;94.80;;;;;;5046568;28;20215;-72
2023/01/06 00:16:15;;;;;;;45.37;9.83;;;19.10;94.80;;;;;;5043482;28;20566;-72
2023/01/06 00:18:43;;;;;;;39.40;9.73;;;19.30;94.60;;;;;;5044263;28;20639;-72
2023/01/06 00:21:12;;;;;;;39.50;9.13;;;19.40;94.40;;;;;;5042290;28;20263;-73
2023/01/06 00:23:40;;;;;;;37.60;8.80;;;19.60;94.40;;;;;;5050846;28;20537;-75
2023/01/06 00:26:09;;;;;;;30.33;7.63;;;19.60;94.30;;;;;;5049558;28;20242;-73
2023/01/06 00:28:36;;;;;;;23.33;7.03;;;19.60;94.10;;;;;;5051845;28;20215;-74
2023/01/06 00:31:15;;;;;;;24.70;6.93;;;19.50;94.00;;;;;;5050713;28;20538;-76
2023/01/06 00:33:43;;;;;;;25.33;6.77;;;19.60;94.00;;;;;;5052020;28;20220;-73
2023/01/06 00:36:12;;;;;;;25.60;7.23;;;19.50;94.00;;;;;;5047108;28;20183;-73
2023/01/06 00:38:40;;;;;;;24.37;6.93;;;19.50;93.80;;;;;;5050472;28;20188;-73
2023/01/06 00:43:57;;;;;;;26.37;10.80;;;19.40;93.60;;;;;;5051513;28;20229;-75
2023/01/06 00:46:27;;;;;;;27.90;7.50;;;19.20;93.70;;;;;;5050247;28;20184;-74
2023/01/06 00:48:58;;;;;;;31.63;7.13;;;19.10;93.80;;;;;;5051016;28;20196;-73
2023/01/06 00:51:26;;;;;;;31.33;8.07;;;19.10;93.90;;;;;;5051453;28;20845;-72
2023/01/06 00:53:54;;;;;;;35.03;8.43;;;19.10;93.90;;;;;;5054430;28;20215;-74
2023/01/06 00:56:21;;;;;;;41.47;10.07;;;19.20;94.00;;;;;;5056141;28;20187;-73
2023/01/06 00:58:48;;;;;;;36.60;10.20;;;19.40;94.00;;;;;;5055992;28;20559;-72
2023/01/06 01:01:16;;;;;;;25.00;9.00;;;19.70;93.70;;;;;;5048143;28;20183;-74
2023/01/06 01:03:43;;;;;;;32.40;8.90;;;20.00;93.40;;;;;;5055549;28;20622;-71
2023/01/06 01:06:11;;;;;;;31.13;6.97;;;20.30;92.90;;;;;;5054826;28;20180;-71
2023/01/06 01:08:38;;;;;;;17.53;5.97;;;20.50;92.00;;;;;;5054899;28;20191;-68
2023/01/06 01:11:08;;;;;;;26.93;7.27;;;20.30;91.50;;;;;;5055731;28;20619;-70
2023/01/06 01:13:35;;;;;;;25.27;7.03;;;20.20;91.70;;;;;;5055036;28;20229;-72
2023/01/06 01:16:08;;;;;;;28.23;9.90;;;19.80;91.40;;;;;;5055869;28;20183;-73
2023/01/06 01:18:35;;;;;;;27.90;7.10;;;19.80;91.80;;;;;;5044158;28;20278;-71
2023/01/06 01:21:03;;;;;;;29.13;6.90;;;19.80;91.70;;;;;;5054791;28;20271;-72
2023/01/06 01:23:30;;;;;;;30.50;7.53;;;20.00;92.10;;;;;;5055543;28;20198;-72
2023/01/06 01:25:58;;;;;;;23.60;6.70;;;19.90;91.60;;;;;;5055811;28;20184;-75
2023/01/06 01:28:25;;;;;;;34.33;7.00;;;19.60;91.60;;;;;;5055906;28;20203;-71
2023/01/06 01:30:59;;;;;;;27.63;7.30;;;19.40;91.80;;;;;;5055665;28;20266;-70
2023/01/06 01:33:29;;;;;;;24.43;7.57;;;19.50;92.10;;;;;;5055386;28;20708;-72
2023/01/06 01:35:56;;;;;;;26.03;7.23;;;19.60;91.90;;;;;;5055704;28;20629;-74
2023/01/06 01:38:26;;;;;;;22.83;7.20;;;19.70;91.70;;;;;;5055286;28;20191;-73
2023/01/06 01:40:53;;;;;;;20.17;6.47;;;20.20;91.60;;;;;;5055572;28;20167;-72
2023/01/06 01:43:20;;;;;;;26.53;6.47;;;20.10;90.70;;;;;;5055067;28;20600;-72
2023/01/06 01:45:51;;;;;;;26.37;6.47;;;20.20;90.80;;;;;;5055294;28;20203;-73
2023/01/06 01:48:32;;;;;;;28.87;6.87;;;19.80;90.40;;;;;;5055522;28;20211;-71
2023/01/06 01:51:02;;;;;;;36.10;8.33;;;19.50;90.70;;;;;;5055160;28;20263;-73
2023/01/06 01:53:39;;;;;;;36.63;8.20;;;19.40;91.40;;;;;;5054806;28;20203;-73
2023/01/06 01:56:11;;;;;;;36.27;9.67;;;19.20;91.80;;;;;;5055375;28;20160;-71
2023/01/06 01:58:50;;;;;;;33.50;8.80;;;18.80;92.60;;;;;;5055405;28;20179;-75
2023/01/06 02:01:17;;;;;;;35.40;9.20;;;18.60;93.00;;;;;;5055334;28;20182;-74
2023/01/06 02:03:45;;;;;;;45.53;10.53;;;18.40;93.20;;;;;;5054968;28;20177;-73
2023/01/06 02:06:20;;;;;;;45.40;11.10;;;18.50;93.60;;;;;;5054679;28;20218;-73
2023/01/06 02:09:22;;;;;;;31.20;9.57;;;18.70;93.70;;;;;;5055240;28;20541;-73
2023/01/06 02:11:51;;;;;;;38.63;10.17;;;18.70;93.50;;;;;;5052728;28;20176;-72
2023/01/06 02:14:22;;;;;;;38.60;10.43;;;18.80;93.60;;;;;;5038433;28;20275;-74
2023/01/06 02:17:24;;;;;;;31.30;9.83;;;18.80;93.50;;;;;;5046073;28;20229;-76
2023/01/06 02:20:11;;;;;;;30.63;9.67;;;18.70;93.60;;;;;;5054696;28;20168;-73
2023/01/06 02:22:56;;;;;;;38.67;10.50;;;18.60;93.60;;;;;;5054387;28;20217;-72
2023/01/06 02:25:48;;;;;;;40.03;11.07;;;18.60;93.70;;;;;;5054818;28;20731;-75
2023/01/06 02:28:49;;;;;;;37.97;11.23;;;19.00;93.70;;;;;;5054729;28;20160;-74
2023/01/06 02:31:43;;;;;;;35.83;10.30;;;19.10;93.60;;;;;;5054651;28;20203;-73
2023/01/06 02:35:01;;;;;;;30.90;10.07;;;18.80;93.20;;;;;;5054705;28;20263;-72
2023/01/06 02:37:47;;;;;;;43.87;14.20;;;18.90;93.20;;;;;;5053295;28;20526;-73
2023/01/06 02:40:25;;;;;;;43.07;14.00;;;18.80;93.10;;;;;;5054647;28;20175;-73
2023/01/06 02:43:08;;;;;;;43.73;13.03;;;18.90;93.20;;;;;;5054476;28;20638;-74
2023/01/06 02:45:44;;;;;;;43.67;13.00;;;18.80;93.30;;;;;;5054641;28;20182;-74
2023/01/06 02:48:35;;;;;;;44.93;12.70;;;18.80;93.50;;;;;;5052761;28;20171;-73
2023/01/06 02:51:13;;;;;;;47.27;13.23;;;18.80;93.40;;;;;;5053653;28;20686;-75
2023/01/06 02:53:59;;;;;;;39.97;11.77;;;18.90;93.40;;;;;;5053939;28;20322;-72
2023/01/06 02:56:34;;;;;;;40.03;12.53;;;18.90;93.00;;;;;;5048846;28;20262;-72
2023/01/06 02:59:24;;;;;;;32.30;11.67;;;19.20;93.00;;;;;;5051911;28;20720;-72
2023/01/06 03:01:53;;;;;;;38.30;11.93;;;19.30;92.60;;;;;;5042778;28;20175;-73
2023/01/06 03:04:29;;;;;;;37.97;12.80;;;19.20;92.80;;;;;;5051895;28;20206;-74
2023/01/06 03:07:01;;;;;;;38.97;11.07;;;19.20;92.90;;;;;;5054010;28;20172;-72
2023/01/06 03:09:34;;;;;;;32.60;10.77;;;19.10;92.60;;;;;;5053655;28;20607;-76
2023/01/06 03:12:06;;;;;;;34.93;11.47;;;19.10;92.70;;;;;;5054064;28;20202;-74
2023/01/06 03:14:47;;;;;;;41.10;12.20;;;19.00;92.70;;;;;;5054184;28;20215;-73
2023/01/06 03:17:14;;;;;;;41.37;11.97;;;18.80;92.90;;;;;;5053208;28;20221;-76
2023/01/06 03:19:43;;;;;;;35.23;11.40;;;18.60;93.10;;;;;;5044951;28;20184;-74
2023/01/06 03:22:11;;;;;;;36.47;11.00;;;18.50;93.20;;;;;;5039065;28;20172;-75
2023/01/06 03:24:39;;;;;;;33.63;11.30;;;18.40;93.30;;;;;;5051353;28;20172;-76
2023/01/06 03:27:08;;;;;;;33.83;11.77;;;18.40;93.40;;;;;;5053674;28;20186;-75
2023/01/06 03:29:36;;;;;;;41.50;13.00;;;18.40;93.50;;;;;;5047974;28;20179;-76
2023/01/06 03:32:32;;;;;;;37.30;12.33;;;18.40;93.60;;;;;;5052894;28;20208;-77
2023/01/06 03:35:26;;;;;;;46.60;14.33;;;18.40;93.70;;;;;;5033911;28;20604;-77
2023/01/06 03:38:14;;;;;;;27.47;13.13;;;18.50;93.80;;;;;;5051988;28;20239;-74
2023/01/06 03:40:51;;;;;;;30.60;12.63;;;18.40;93.50;;;;;;5053698;28;20183;-74
2023/01/06 03:43:33;;;;;;;36.37;13.03;;;18.20;93.70;;;;;;5053307;28;20183;-74
2023/01/06 03:46:16;;;;;;;28.50;12.57;;;18.20;93.80;;;;;;5053416;28;20623;-75
2023/01/06 03:49:27;;;;;;;41.73;13.83;;;18.20;93.70;;;;;;5057196;28;20179;-77
2023/01/06 03:52:23;;;;;;;32.37;15.03;;;18.30;93.80;;;;;;5033547;28;20719;-73
2023/01/06 03:55:13;;;;;;;41.97;15.13;;;18.30;93.80;;;;;;5046071;28;20202;-74
2023/01/06 03:57:45;;;;;;;43.40;16.03;;;18.50;93.80;;;;;;5053216;28;20673;-75
2023/01/06 04:00:19;;;;;;;44.17;16.77;;;18.50;93.80;;;;;;5053151;28;20176;-75
2023/01/06 04:02:49;;;;;;;34.10;14.63;;;18.60;93.70;;;;;;5053044;28;20254;-76
2023/01/06 04:05:23;;;;;;;41.80;15.07;;;18.60;93.50;;;;;;5053686;28;20203;-74
2023/01/06 04:07:50;;;;;;;34.20;16.13;;;18.70;93.70;;;;;;5052394;28;20180;-73
2023/01/06 04:10:19;;;;;;;36.50;14.67;;;18.80;93.60;;;;;;5052849;28;20221;-74
2023/01/06 04:12:46;;;;;;;39.67;15.47;;;18.70;93.40;;;;;;5052930;28;20202;-77
2023/01/06 04:15:32;;;;;;;28.93;14.47;;;18.80;93.40;;;;;;5052849;28;20657;-79
2023/01/06 04:17:59;;;;;;;34.17;16.63;;;18.80;93.40;;;;;;5051574;28;20180;-76
2023/01/06 04:20:29;;;;;;;30.00;14.90;;;18.70;93.40;;;;;;5052530;28;20187;-76
2023/01/06 04:22:57;;;;;;;31.57;14.33;;;18.80;93.40;;;;;;5051088;28;20184;-75
2023/01/06 04:25:25;;;;;;;33.57;14.83;;;18.80;93.30;;;;;;5045124;28;20646;-76
2023/01/06 04:27:53;;;;;;;32.60;13.73;;;18.90;93.20;;;;;;5040948;28;20168;-72
2023/01/06 04:30:20;;;;;;;30.37;14.43;;;18.80;92.80;;;;;;5052836;28;20168;-71
2023/01/06 04:32:47;;;;;;;35.23;14.77;;;18.90;92.80;;;;;;5052269;28;20225;-77
2023/01/06 04:35:15;;;;;;;28.20;12.87;;;19.20;92.70;;;;;;5051586;28;20682;-74
2023/01/06 04:37:42;;;;;;;33.27;12.13;;;19.60;92.30;;;;;;5050204;28;20179;-73
2023/01/06 04:40:10;;;;;;;28.37;12.73;;;19.60;91.60;;;;;;5049777;28;20176;-72
2023/01/06 04:43:23;;;;;;;40.30;12.23;;;19.70;91.60;;;;;;5052295;28;20588;-72
2023/01/06 04:45:25;;;;;;;36.13;12.23;;;19.70;91.60;;;;;;5047532;28;20270;-73
2023/01/06 04:47:52;;;;;;;29.30;10.53;;;19.70;91.40;;;;;;5042317;28;20187;-72
2023/01/06 04:50:19;;;;;;;36.33;9.77;;;19.60;90.80;;;;;;5045526;28;20245;-73
2023/01/06 04:52:47;;;;;;;33.70;10.50;;;19.60;91.00;;;;;;5050501;28;20219;-71
2023/01/06 04:55:14;;;;;;;41.17;11.07;;;19.70;90.80;;;;;;5051188;28;20184;-74
2023/01/06 04:57:41;;;;;;;33.70;9.97;;;19.40;90.70;;;;;;5052478;28;20562;-72
2023/01/06 05:00:09;;;;;;;26.93;9.03;;;19.40;91.00;;;;;;5050086;28;20180;-71
2023/01/06 05:02:37;;;;;;;24.47;9.83;;;19.40;91.00;;;;;;5049403;28;20192;-72
2023/01/06 05:05:04;;;;;;;27.13;9.40;;;19.50;91.00;;;;;;5050447;28;20183;-72
2023/01/06 05:07:32;;;;;;;31.47;9.37;;;19.50;90.50;;;;;;5050452;28;20702;-72
2023/01/06 05:10:06;;;;;;;25.20;8.57;;;19.50;90.50;;;;;;5051563;28;20180;-72
2023/01/06 05:12:34;;;;;;;24.20;7.47;;;19.50;90.40;;;;;;5051463;28;20661;-74
2023/01/06 05:15:02;;;;;;;29.33;8.50;;;19.40;90.20;;;;;;5055332;28;20267;-74
2023/01/06 05:17:30;;;;;;;29.40;8.17;;;19.50;90.20;;;;;;5049779;28;20278;-72
2023/01/06 05:19:57;;;;;;;30.13;7.70;;;19.30;90.10;;;;;;5051755;28;20180;-71
2023/01/06 05:22:25;;;;;;;28.07;8.33;;;19.20;89.70;;;;;;5050312;28;20536;-72
2023/01/06 05:24:52;;;;;;;34.73;10.70;;;19.10;90.20;;;;;;5048799;28;20179;-72
2023/01/06 05:27:19;;;;;;;39.27;10.07;;;19.00;90.70;;;;;;5046644;28;20188;-71
2023/01/06 05:29:47;;;;;;;32.87;10.77;;;19.00;90.90;;;;;;5050272;28;20180;-71
2023/01/06 05:32:14;;;;;;;33.10;9.97;;;19.00;91.20;;;;;;5050005;28;20288;-73
2023/01/06 05:34:41;;;;;;;34.87;10.80;;;18.90;91.20;;;;;;5051132;28;20202;-73
2023/01/06 05:37:09;;;;;;;38.17;11.37;;;19.00;91.30;;;;;;5044204;28;20263;-70
2023/01/06 05:39:36;;;;;;;32.70;11.57;;;18.90;91.30;;;;;;5049663;28;20195;-71
2023/01/06 05:42:03;;;;;;;28.40;10.87;;;18.80;91.50;;;;;;5053655;28;20539;-72
2023/01/06 05:44:31;;;;;;;38.80;13.47;;;18.60;91.60;;;;;;5050748;28;20180;-71
2023/01/06 05:46:59;;;;;;;35.00;11.73;;;18.60;91.90;;;;;;5050276;28;20535;-70
2023/01/06 05:49:26;;;;;;;25.03;10.43;;;18.70;92.00;;;;;;5045957;28;20191;-71
2023/01/06 05:51:53;;;;;;;18.60;8.63;;;18.80;91.70;;;;;;5048816;28;20216;-75
2023/01/06 05:54:21;;;;;;;15.07;7.90;;;18.80;91.20;;;;;;5049440;28;20206;-72
2023/01/06 05:56:48;;;;;;;17.93;6.73;;;18.90;91.20;;;;;;5041354;28;20177;-75
2023/01/06 05:59:15;;;;;;;14.73;6.87;;;18.90;90.60;;;;;;5051813;28;20241;-70
2023/01/06 06:01:43;;;;;;;19.80;6.87;;;18.90;90.40;;;;;;5054712;28;20175;-72
2023/01/06 06:04:12;;;;;;;18.67;7.10;;;18.80;90.30;;;;;;5044487;28;20271;-71
2023/01/06 06:06:39;;;;;;;19.70;7.57;;;18.80;90.90;;;;;;5054816;28;20653;-72
2023/01/06 06:09:07;;;;;;;18.53;6.47;;;18.80;90.90;;;;;;5053329;28;20646;-72
2023/01/06 06:11:34;;;;;;;17.03;6.20;;;18.70;90.80;;;;;;5049089;28;20195;-73
2023/01/06 06:14:02;;;;;;;23.03;7.03;;;18.70;91.00;;;;;;5053199;28;20239;-73
2023/01/06 06:16:29;;;;;;;23.00;7.63;;;18.60;90.90;;;;;;5054606;28;20184;-72
2023/01/06 06:18:58;;;;;;;21.77;8.27;;;18.60;91.10;;;;;;5049337;28;20203;-70
2023/01/06 06:21:29;;;;;;;27.07;9.77;;;18.50;91.30;;;;;;5050855;28;20761;-72
2023/01/06 06:23:58;;;;;;;22.83;10.07;;;18.50;91.90;;;;;;5053156;28;20238;-71
2023/01/06 06:26:26;;;;;;;28.87;10.40;;;18.50;91.80;;;;;;5054270;28;20591;-75
2023/01/06 06:28:53;;;;;;;24.33;10.27;;;18.40;92.00;;;;;;5053416;28;20200;-74
2023/01/06 06:31:24;;;;;;;20.57;9.43;;;18.40;92.00;;;;;;5053898;28;20190;-74
2023/01/06 06:33:53;;;;;;;19.73;10.07;;;18.20;92.00;;;;;;5052599;28;20219;-72
2023/01/06 06:36:20;;;;;;;25.10;9.97;;;18.20;92.20;;;;;;5048405;28;20215;-74
2023/01/06 06:38:49;;;;;;;24.60;11.00;;;18.20;92.20;;;;;;5052070;28;20748;-72
2023/01/06 06:41:17;;;;;;;26.17;10.60;;;18.20;92.20;;;;;;5051166;28;20694;-73
2023/01/06 06:43:45;;;;;;;14.97;9.80;;;18.20;92.20;;;;;;5048460;28;20214;-71
2023/01/06 06:46:12;;;;;;;16.87;8.83;;;17.90;92.00;;;;;;5052471;28;20612;-73
2023/01/06 06:48:40;;;;;;;24.50;10.87;;;17.80;92.10;;;;;;5052670;28;20611;-73
2023/01/06 06:51:15;;;;;;;21.93;10.67;;;17.70;92.40;;;;;;5050020;28;20215;-72
2023/01/06 06:53:43;;;;;;;24.53;11.60;;;17.60;92.50;;;;;;5051466;28;20219;-73
2023/01/06 06:56:11;;;;;;;20.33;11.47;;;17.50;92.70;;;;;;5048034;28;20186;-72
2023/01/06 06:58:39;;;;;;;18.97;11.33;;;17.40;92.80;;;;;;5051950;28;20214;-73
2023/01/06 07:01:11;;;;;;;22.50;11.47;;;17.40;92.90;;;;;;5048338;28;20259;-74
2023/01/06 07:03:39;;;;;;;24.80;11.70;;;17.30;92.90;;;;;;5045771;28;20191;-75
2023/01/06 07:06:09;;;;;;;20.90;10.90;;;17.30;93.00;;;;;;5048482;28;20219;-72
2023/01/06 07:08:36;;;;;;;25.60;12.53;;;17.30;93.00;;;;;;5041474;28;20644;-73
2023/01/06 07:11:05;;;;;;;23.80;13.60;;;17.30;93.10;;;;;;5051526;28;20172;-72
2023/01/06 07:13:32;;;;;;;32.53;13.47;;;17.30;93.10;;;;;;5051197;28;20219;-75
2023/01/06 07:15:59;;;;;;;21.13;13.70;;;17.20;93.00;;;;;;5049902;28;20179;-75
2023/01/06 07:18:27;;;;;;;25.70;12.53;;;17.20;93.20;;;;;;5051359;28;20315;-74
2023/01/06 07:20:54;;;;;;;25.70;12.63;;;17.00;93.10;;;;;;5050880;28;20188;-71
2023/01/06 07:23:23;;;;;;;21.53;13.37;;;17.00;93.20;;;;;;5043814;28;20642;-74
2023/01/06 07:25:58;;;;;;;24.20;13.73;;;17.00;93.30;;;;;;5051152;28;20229;-74
2023/01/06 07:28:27;;;;;;;24.20;12.83;;;17.00;93.40;;;;;;5051353;28;20280;-72
2023/01/06 07:30:54;;;;;;;18.40;13.57;;;17.00;93.30;;;;;;5061907;28;20182;-74
2023/01/06 07:33:23;;;;;;;20.80;14.77;;;17.00;93.30;;;;;;5046445;28;20207;-73
2023/01/06 07:35:55;;;;;;;21.30;14.00;;;16.90;93.40;;;;;;5051689;28;20186;-73
2023/01/06 07:38:23;;;;;;;26.07;14.37;;;16.90;93.40;;;;;;5046596;28;20206;-74
2023/01/06 07:40:51;;;;;;;24.23;14.97;;;16.80;93.40;;;;;;5053392;28;20165;-74
2023/01/06 07:43:18;;;;;;;25.30;15.10;;;16.90;93.50;;;;;;5050530;28;20183;-73
2023/01/06 07:45:49;;;;;;;28.67;15.33;;;16.90;93.50;;;;;;5050556;28;20546;-76
2023/01/06 07:48:17;;;;;;;23.03;15.87;;;16.90;93.60;;;;;;5051827;28;20180;-72
2023/01/06 07:50:44;;;;;;;25.10;15.13;;;16.90;93.60;;;;;;5052456;28;20263;-75
2023/01/06 07:53:12;;;;;;;20.13;15.67;;;16.90;93.60;;;;;;5051555;28;20300;-73
2023/01/06 07:55:39;;;;;;;29.93;18.20;;;17.00;93.70;;;;;;5052612;28;20178;-75
2023/01/06 07:58:08;;;;;;;26.37;17.70;;;17.00;93.80;;;;;;5053374;28;20182;-76
2023/01/06 08:00:36;;;;;;;30.70;18.20;;;17.10;93.90;;;;;;5053030;28;20167;-78
2023/01/06 08:03:07;;;;;;;25.47;17.53;;;17.20;93.90;;;;;;5053505;28;20175;-75
2023/01/06 08:05:43;;;;;;;23.57;17.23;;;17.20;93.90;;;;;;5053178;28;20233;-72
2023/01/06 08:08:11;;;;;;;38.53;18.53;;;17.20;93.90;;;;;;5052674;28;20512;-77
2023/01/06 08:10:40;;;;;;;30.97;18.87;;;17.20;94.00;;;;;;5052949;28;20183;-76
2023/01/06 08:13:09;;;;;;;27.23;19.20;;;17.30;94.00;;;;;;5052978;28;20263;-73
2023/01/06 08:15:37;;;;;;;31.10;18.27;;;17.30;94.00;;;;;;5051733;28;20186;-75
2023/01/06 08:18:05;;;;;;;29.33;20.50;;;17.30;94.00;;;;;;5052930;28;20247;-73
2023/01/06 08:20:33;;;;;;;29.20;19.63;;;17.30;93.90;;;;;;5051440;28;20182;-75
2023/01/06 08:23:01;;;;;;;34.10;19.80;;;17.30;94.00;;;;;;5048289;28;20554;-75
2023/01/06 08:25:29;;;;;;;36.07;20.07;;;17.30;94.00;;;;;;5050768;28;20179;-72
2023/01/06 08:27:58;;;;;;;37.17;20.83;;;17.30;93.90;;;;;;5052201;28;20709;-74
2023/01/06 08:30:26;;;;;;;34.30;17.90;;;17.30;93.90;;;;;;5058302;28;20628;-73
2023/01/06 08:32:57;;;;;;;36.90;16.77;;;17.30;93.80;;;;;;5043383;28;20202;-79
2023/01/06 08:35:25;;;;;;;37.83;19.10;;;17.30;93.80;;;;;;5052331;28;20199;-77
2023/01/06 08:37:52;;;;;;;35.07;20.03;;;17.40;93.90;;;;;;5052019;28;20179;-76
2023/01/06 08:40:20;;;;;;;37.90;19.83;;;17.40;93.90;;;;;;5050161;28;20186;-75
2023/01/06 08:42:47;;;;;;;29.20;19.17;;;17.40;93.80;;;;;;5052217;28;20194;-73
2023/01/06 08:45:14;;;;;;;37.60;19.33;;;17.50;93.90;;;;;;5050147;28;20191;-77
2023/01/06 08:47:41;;;;;;;43.77;22.33;;;17.50;93.90;;;;;;5045916;28;20186;-74
2023/01/06 08:50:09;;;;;;;37.80;20.57;;;17.50;93.80;;;;;;5052302;28;20183;-72
2023/01/06 08:52:36;;;;;;;37.27;22.17;;;17.50;93.80;;;;;;5051249;28;20291;-74
2023/01/06 08:55:04;;;;;;;34.30;20.97;;;17.40;93.70;;;;;;5047976;28;20657;-74
2023/01/06 08:57:33;;;;;;;43.73;20.27;;;17.40;93.70;;;;;;5051804;28;20277;-74
2023/01/06 09:00:00;;;;;;;34.43;20.70;;;17.40;93.60;;;;;;5051695;28;20193;-70
2023/01/06 09:02:30;;;;;;;31.40;20.83;;;17.40;93.60;;;;;;5052094;28;20194;-74
2023/01/06 09:04:57;;;;;;;30.80;20.03;;;17.40;93.60;;;;;;5052000;28;20189;-75
2023/01/06 09:07:25;;;;;;;28.87;21.60;;;17.40;93.50;;;;;;5051192;28;20183;-78
2023/01/06 09:09:52;;;;;;;35.13;19.20;;;17.40;93.60;;;;;;5042363;28;20239;-71
2023/01/06 09:12:19;;;;;;;32.53;21.80;;;17.40;93.40;;;;;;5049092;28;20202;-75
2023/01/06 09:14:47;;;;;;;35.73;24.23;;;17.40;93.50;;;;;;5053659;28;20187;-72
2023/01/06 09:17:14;;;;;;;32.77;22.83;;;17.40;93.50;;;;;;5053630;28;20259;-76
2023/01/06 09:19:41;;;;;;;29.67;22.33;;;17.40;93.50;;;;;;5055159;28;20667;-75
2023/01/06 09:22:09;;;;;;;27.13;22.00;;;17.30;93.40;;;;;;5054798;28;20697;-74
2023/01/06 09:24:36;;;;;;;40.37;24.60;;;17.40;93.50;;;;;;5053266;28;20183;-75
2023/01/06 09:27:03;;;;;;;34.23;24.03;;;17.30;93.50;;;;;;5055695;28;20175;-77
2023/01/06 09:29:31;;;;;;;29.57;22.13;;;17.30;93.50;;;;;;5054534;28;20175;-77
2023/01/06 09:31:58;;;;;;;28.87;22.20;;;17.30;93.50;;;;;;5053785;28;20193;-70
2023/01/06 09:34:26;;;;;;;40.13;24.20;;;17.30;93.60;;;;;;5052991;28;20573;-71
2023/01/06 09:36:53;;;;;;;38.60;25.10;;;17.30;93.50;;;;;;5050050;28;20169;-73
2023/01/06 09:39:20;;;;;;;35.97;25.00;;;17.30;93.60;;;;;;5047705;28;20530;-75
2023/01/06 09:42:18;;;;;;;41.03;24.13;;;17.30;93.50;;;;;;5055412;28;20168;-75
2023/01/06 09:45:04;;;;;;;41.20;28.13;;;17.30;93.50;;;;;;5055457;28;20188;-74
2023/01/06 09:47:43;;;;;;;48.63;25.93;;;17.30;93.60;;;;;;5055462;28;20180;-73
2023/01/06 09:50:31;;;;;;;46.13;26.20;;;17.30;93.60;;;;;;5045017;28;20179;-73
2023/01/06 09:53:17;;;;;;;44.13;26.43;;;17.30;93.60;;;;;;5050663;28;20278;-72
2023/01/06 09:55:51;;;;;;;44.97;27.33;;;17.30;93.60;;;;;;5054861;28;20649;-72
2023/01/06 09:58:22;;;;;;;39.37;25.83;;;17.40;93.60;;;;;;5073631;28;20179;-72
2023/01/06 10:00:52;;;;;;;38.73;25.90;;;17.50;93.60;;;;;;5046358;28;20209;-72
2023/01/06 10:03:27;;;;;;;41.97;25.90;;;17.40;93.60;;;;;;5055422;28;20179;-72
2023/01/06 10:06:09;;;;;;;35.87;24.20;;;17.40;93.60;;;;;;5054289;28;20594;-72
2023/01/06 10:08:51;;;;;;;46.00;27.57;;;17.50;93.60;;;;;;5054382;28;20634;-71
2023/01/06 10:11:35;;;;;;;40.93;24.27;;;17.40;93.50;;;;;;5055147;28;20171;-72
2023/01/06 10:14:37;;;;;;;40.27;25.27;;;17.50;93.50;;;;;;5054397;28;20216;-72
2023/01/06 10:17:28;;;;;;;34.37;23.83;;;17.50;93.50;;;;;;5052640;28;20249;-71
2023/01/06 10:20:25;;;;;;;47.10;25.53;;;17.50;93.50;;;;;;5052104;28;20179;-70
2023/01/06 10:23:18;;;;;;;50.43;24.93;;;17.60;93.40;;;;;;5054540;28;20531;-71
2023/01/06 10:25:58;;;;;;;43.53;26.70;;;17.60;93.40;;;;;;5054709;28;20187;-71
2023/01/06 10:28:31;;;;;;;47.80;27.07;;;17.60;93.30;;;;;;5054437;28;20183;-70
2023/01/06 10:31:06;;;;;;;43.93;25.23;;;17.70;93.30;;;;;;5053739;28;20184;-69
2023/01/06 10:33:36;;;;;;;43.63;27.07;;;17.70;93.40;;;;;;5054505;28;20218;-71
2023/01/06 10:36:10;;;;;;;45.17;28.33;;;17.70;93.30;;;;;;5053443;28;20191;-71
2023/01/06 10:39:12;;;;;;;36.77;25.73;;;17.60;93.30;;;;;;5050506;28;20175;-71
2023/01/06 10:41:52;;;;;;;43.23;24.50;;;17.70;93.20;;;;;;5042017;28;20195;-72
2023/01/06 10:44:20;;;;;;;34.13;25.37;;;17.60;93.20;;;;;;5048030;28;20214;-71
2023/01/06 10:46:48;;;;;;;39.73;24.53;;;17.60;93.10;;;;;;5051400;28;20179;-70
2023/01/06 10:49:18;;;;;;;34.17;24.73;;;17.70;93.10;;;;;;5050620;28;20178;-70
2023/01/06 10:52:01;;;;;;;38.63;24.07;;;17.70;93.00;;;;;;5045248;28;20238;-71
2023/01/06 10:54:32;;;;;;;34.30;24.47;;;17.70;93.00;;;;;;5047150;28;20187;-72
2023/01/06 10:57:09;;;;;;;34.87;23.07;;;17.70;93.00;;;;;;5053481;28;20167;-72
2023/01/06 11:00:15;;;;;;;32.37;18.27;;;17.70;92.70;;;;;;5047953;28;20179;-72
2023/01/06 11:02:52;;;;;;;30.03;17.83;;;17.70;92.30;;;;;;5046592;28;20199;-72
2023/01/06 11:05:30;;;;;;;27.67;18.23;;;17.80;92.00;;;;;;5049522;28;20664;-73
2023/01/06 11:08:06;;;;;;;28.27;17.97;;;17.80;91.80;;;;;;5050798;28;20233;-72
2023/01/06 11:10:52;;;;;;;24.07;15.53;;;17.80;91.70;;;;;;5052484;28;20185;-73
2023/01/06 11:13:34;;;;;;;24.63;13.23;;;17.80;91.10;;;;;;5045041;28;20222;-75
2023/01/06 11:16:16;;;;;;;23.43;12.60;;;17.80;90.60;;;;;;5052977;28;20273;-74
2023/01/06 11:18:54;;;;;;;24.87;14.33;;;17.80;90.60;;;;;;5053648;28;20184;-75
2023/01/06 11:21:22;;;;;;;24.47;12.30;;;17.80;90.60;;;;;;5044472;28;20182;-73
2023/01/06 11:24:02;;;;;;;24.17;11.17;;;17.90;90.50;;;;;;5050408;28;20244;-73
2023/01/06 11:26:29;;;;;;;28.80;12.70;;;18.00;90.30;;;;;;5052898;28;20237;-74
2023/01/06 11:29:13;;;;;;;24.10;11.67;;;18.00;90.40;;;;;;5053009;28;20179;-77
2023/01/06 11:31:46;;;;;;;24.70;12.67;;;18.10;90.10;;;;;;5053039;28;20187;-73
2023/01/06 11:34:27;;;;;;;22.70;11.03;;;18.10;90.20;;;;;;5051703;28;20212;-76
2023/01/06 11:36:56;;;;;;;27.33;11.03;;;18.10;90.20;;;;;;5052042;28;20183;-74
2023/01/06 11:39:33;;;;;;;27.40;12.10;;;18.20;90.10;;;;;;5052657;28;20186;-77
2023/01/06 11:42:13;;;;;;;20.67;10.27;;;18.10;90.40;;;;;;5050731;28;20532;-76
2023/01/06 11:44:42;;;;;;;26.10;11.70;;;18.10;90.40;;;;;;5053440;28;20183;-73
2023/01/06 11:47:17;;;;;;;24.27;11.07;;;18.10;90.40;;;;;;5051915;28;20256;-74
2023/01/06 11:49:50;;;;;;;27.53;8.90;;;18.10;90.00;;;;;;5052751;28;20543;-76
2023/01/06 11:52:23;;;;;;;25.37;9.43;;;18.10;89.40;;;;;;5052924;28;20693;-75
2023/01/06 11:55:14;;;;;;;26.03;11.57;;;18.00;89.90;;;;;;5052789;28;20191;-78
2023/01/06 11:58:07;;;;;;;24.20;12.03;;;18.00;90.60;;;;;;5052650;28;20191;-74
2023/01/06 12:00:35;;;;;;;22.03;12.20;;;18.00;91.10;;;;;;5053262;28;20270;-72
2023/01/06 12:03:40;;;;;;;25.90;12.87;;;17.90;91.40;;;;;;5053534;28;20679;-74
2023/01/06 12:06:36;;;;;;;23.60;12.50;;;17.80;91.50;;;;;;5052191;28;20215;-72
2023/01/06 12:09:23;;;;;;;25.20;13.20;;;17.80;91.70;;;;;;5043846;28;20177;-71
2023/01/06 12:11:54;;;;;;;25.03;13.93;;;17.80;91.70;;;;;;5052784;28;20172;-77
2023/01/06 12:14:39;;;;;;;31.43;14.03;;;17.80;91.80;;;;;;5052838;28;20265;-78
2023/01/06 12:17:12;;;;;;;20.63;12.90;;;17.80;91.70;;;;;;5049161;28;20223;-76
2023/01/06 12:19:43;;;;;;;22.00;11.93;;;17.80;91.70;;;;;;5050998;28;20550;-77
2023/01/06 12:22:45;;;;;;;15.53;12.33;;;17.80;91.50;;;;;;5052107;28;20179;-72
2023/01/06 12:25:18;;;;;;;23.33;11.87;;;17.70;91.30;;;;;;5046351;28;20202;-78
2023/01/06 12:27:56;;;;;;;16.03;11.33;;;17.70;91.40;;;;;;5052279;28;20257;-77
2023/01/06 12:30:36;;;;;;;24.73;13.17;;;17.70;91.40;;;;;;5052775;28;20454;-77
2023/01/06 12:33:31;;;;;;;26.40;14.77;;;17.70;91.50;;;;;;5051565;28;20298;-77
2023/01/06 12:36:08;;;;;;;23.57;15.17;;;17.70;91.70;;;;;;5052784;28;20172;-73
2023/01/06 12:38:54;;;;;;;27.27;15.40;;;17.70;91.90;;;;;;5052115;28;20267;-73
2023/01/06 12:41:39;;;;;;;25.97;15.77;;;17.60;92.10;;;;;;5052416;28;20538;-75
2023/01/06 12:44:36;;;;;;;27.90;17.20;;;17.60;92.20;;;;;;5052019;28;20183;-74
2023/01/06 12:47:22;;;;;;;25.00;17.53;;;17.60;92.40;;;;;;5044787;28;20183;-72
2023/01/06 12:49:54;;;;;;;28.77;17.63;;;17.50;92.50;;;;;;5054368;28;20547;-76
2023/01/06 12:52:31;;;;;;;25.10;17.80;;;17.50;92.40;;;;;;5057015;28;20273;-72
2023/01/06 12:55:00;;;;;;;27.87;16.93;;;17.50;92.60;;;;;;5043738;28;20179;-76
2023/01/06 12:57:48;;;;;;;25.50;17.67;;;17.40;92.40;;;;;;5055456;28;20649;-77
2023/01/06 13:00:33;;;;;;;30.73;18.73;;;17.40;92.40;;;;;;5056418;28;20661;-75
2023/01/06 13:03:18;;;;;;;24.47;18.77;;;17.40;92.40;;;;;;5043427;28;20180;-74